sensor_id;sensor_type;location;lat;lon;timestamp;P1;durP1;ratioP1;P2;durP2;ratioP2
22160;SDS011;49035;48.812;11.762;2022-10-19T00:01:21;19.75;;;11.77;;
22160;SDS011;49035;48.812;11.762;2022-10-19T00:03:47;21.30;;;13.10;;
22160;SDS011;49035;48.812;11.762;2022-10-19T00:08:49;18.23;;;12.05;;
22160;SDS011;49035;48.812;11.762;2022-10-19T00:11:16;21.45;;;12.85;;
22160;SDS011;49035;48.812;11.762;2022-10-19T00:13:42;14.65;;;12.50;;
22160;SDS011;49035;48.812;11.762;2022-10-19T00:16:09;22.40;;;12.93;;
22160;SDS011;49035;48.812;11.762;2022-10-19T00:18:36;14.40;;;11.27;;
22160;SDS011;49035;48.812;11.762;2022-10-19T00:21:06;15.48;;;12.30;;
22160;SDS011;49035;48.812;11.762;2022-10-19T00:23:33;15.32;;;11.13;;
22160;SDS011;49035;48.812;11.762;2022-10-19T00:25:59;13.95;;;10.80;;
22160;SDS011;49035;48.812;11.762;2022-10-19T00:28:25;8.25;;;6.72;;
22160;SDS011;49035;48.812;11.762;2022-10-19T00:30:51;6.60;;;6.00;;
22160;SDS011;49035;48.812;11.762;2022-10-19T00:33:17;8.73;;;7.20;;
22160;SDS011;49035;48.812;11.762;2022-10-19T00:35:46;11.48;;;8.48;;
22160;SDS011;49035;48.812;11.762;2022-10-19T00:38:16;13.68;;;9.98;;
22160;SDS011;49035;48.812;11.762;2022-10-19T00:40:42;14.32;;;10.43;;
22160;SDS011;49035;48.812;11.762;2022-10-19T00:43:12;17.10;;;11.55;;
22160;SDS011;49035;48.812;11.762;2022-10-19T00:45:39;15.25;;;10.95;;
22160;SDS011;49035;48.812;11.762;2022-10-19T00:48:05;15.23;;;12.07;;
22160;SDS011;49035;48.812;11.762;2022-10-19T00:50:31;21.40;;;12.65;;
22160;SDS011;49035;48.812;11.762;2022-10-19T00:52:57;21.45;;;11.80;;
22160;SDS011;49035;48.812;11.762;2022-10-19T00:55:23;21.05;;;13.10;;
22160;SDS011;49035;48.812;11.762;2022-10-19T00:57:49;19.02;;;12.57;;
22160;SDS011;49035;48.812;11.762;2022-10-19T01:00:15;12.20;;;8.05;;
22160;SDS011;49035;48.812;11.762;2022-10-19T01:02:40;15.95;;;7.10;;
22160;SDS011;49035;48.812;11.762;2022-10-19T01:05:09;6.95;;;6.25;;
22160;SDS011;49035;48.812;11.762;2022-10-19T01:07:35;10.85;;;9.30;;
22160;SDS011;49035;48.812;11.762;2022-10-19T01:10:01;9.80;;;8.57;;
22160;SDS011;49035;48.812;11.762;2022-10-19T01:23:52;18.92;;;12.07;;
22160;SDS011;49035;48.812;11.762;2022-10-19T01:32:23;17.58;;;12.00;;
22160;SDS011;49035;48.812;11.762;2022-10-19T01:35:04;18.70;;;12.75;;
22160;SDS011;49035;48.812;11.762;2022-10-19T01:40:18;15.38;;;10.70;;
22160;SDS011;49035;48.812;11.762;2022-10-19T01:43:17;18.70;;;11.07;;
22160;SDS011;49035;48.812;11.762;2022-10-19T01:45:53;15.40;;;10.95;;
22160;SDS011;49035;48.812;11.762;2022-10-19T01:48:38;13.18;;;9.93;;
22160;SDS011;49035;48.812;11.762;2022-10-19T01:51:17;14.57;;;10.38;;
22160;SDS011;49035;48.812;11.762;2022-10-19T01:53:48;13.32;;;10.07;;
22160;SDS011;49035;48.812;11.762;2022-10-19T01:56:17;15.60;;;10.55;;
22160;SDS011;49035;48.812;11.762;2022-10-19T01:58:46;16.45;;;11.38;;
22160;SDS011;49035;48.812;11.762;2022-10-19T02:01:14;17.83;;;10.10;;
22160;SDS011;49035;48.812;11.762;2022-10-19T02:03:43;21.60;;;12.32;;
22160;SDS011;49035;48.812;11.762;2022-10-19T02:06:09;18.10;;;12.10;;
22160;SDS011;49035;48.812;11.762;2022-10-19T02:08:42;14.18;;;10.57;;
22160;SDS011;49035;48.812;11.762;2022-10-19T02:11:10;19.65;;;9.38;;
22160;SDS011;49035;48.812;11.762;2022-10-19T02:13:36;227.77;;;19.88;;
22160;SDS011;49035;48.812;11.762;2022-10-19T02:16:05;12.02;;;9.57;;
22160;SDS011;49035;48.812;11.762;2022-10-19T02:18:39;10.00;;;8.38;;
22160;SDS011;49035;48.812;11.762;2022-10-19T02:21:09;7.85;;;6.82;;
22160;SDS011;49035;48.812;11.762;2022-10-19T02:23:35;13.60;;;8.77;;
22160;SDS011;49035;48.812;11.762;2022-10-19T02:26:01;21.08;;;10.93;;
22160;SDS011;49035;48.812;11.762;2022-10-19T02:28:27;16.50;;;10.63;;
22160;SDS011;49035;48.812;11.762;2022-10-19T02:30:54;19.13;;;8.40;;
22160;SDS011;49035;48.812;11.762;2022-10-19T02:33:20;8.02;;;6.22;;
22160;SDS011;49035;48.812;11.762;2022-10-19T02:35:46;22.95;;;10.80;;
22160;SDS011;49035;48.812;11.762;2022-10-19T02:38:13;18.05;;;11.05;;
22160;SDS011;49035;48.812;11.762;2022-10-19T02:40:42;15.70;;;10.68;;
22160;SDS011;49035;48.812;11.762;2022-10-19T02:43:18;19.42;;;11.63;;
22160;SDS011;49035;48.812;11.762;2022-10-19T02:45:52;20.95;;;11.43;;
22160;SDS011;49035;48.812;11.762;2022-10-19T02:48:31;45.72;;;11.38;;
22160;SDS011;49035;48.812;11.762;2022-10-19T02:50:57;25.38;;;11.05;;
22160;SDS011;49035;48.812;11.762;2022-10-19T02:53:23;16.75;;;11.75;;
22160;SDS011;49035;48.812;11.762;2022-10-19T02:55:49;16.17;;;11.93;;
22160;SDS011;49035;48.812;11.762;2022-10-19T02:58:15;14.30;;;11.00;;
22160;SDS011;49035;48.812;11.762;2022-10-19T03:00:41;13.18;;;9.18;;
22160;SDS011;49035;48.812;11.762;2022-10-19T03:03:07;17.40;;;11.40;;
22160;SDS011;49035;48.812;11.762;2022-10-19T03:05:33;15.38;;;10.48;;
22160;SDS011;49035;48.812;11.762;2022-10-19T03:07:58;66.47;;;11.88;;
22160;SDS011;49035;48.812;11.762;2022-10-19T03:10:24;27.88;;;10.63;;
22160;SDS011;49035;48.812;11.762;2022-10-19T03:12:49;16.27;;;9.70;;
22160;SDS011;49035;48.812;11.762;2022-10-19T03:15:15;10.73;;;9.35;;
22160;SDS011;49035;48.812;11.762;2022-10-19T03:17:42;11.23;;;8.27;;
22160;SDS011;49035;48.812;11.762;2022-10-19T03:20:08;10.23;;;8.88;;
22160;SDS011;49035;48.812;11.762;2022-10-19T03:22:35;10.25;;;8.07;;
22160;SDS011;49035;48.812;11.762;2022-10-19T03:25:00;29.83;;;8.95;;
22160;SDS011;49035;48.812;11.762;2022-10-19T03:27:26;13.30;;;8.60;;
22160;SDS011;49035;48.812;11.762;2022-10-19T03:29:52;12.48;;;8.82;;
22160;SDS011;49035;48.812;11.762;2022-10-19T03:32:18;13.73;;;8.82;;
22160;SDS011;49035;48.812;11.762;2022-10-19T03:34:43;9.50;;;7.82;;
22160;SDS011;49035;48.812;11.762;2022-10-19T03:37:09;8.98;;;7.45;;
22160;SDS011;49035;48.812;11.762;2022-10-19T03:39:37;9.63;;;8.00;;
22160;SDS011;49035;48.812;11.762;2022-10-19T03:42:02;10.13;;;8.48;;
22160;SDS011;49035;48.812;11.762;2022-10-19T03:44:28;10.77;;;8.55;;
22160;SDS011;49035;48.812;11.762;2022-10-19T03:46:54;12.88;;;8.85;;
22160;SDS011;49035;48.812;11.762;2022-10-19T03:49:19;11.90;;;8.82;;
22160;SDS011;49035;48.812;11.762;2022-10-19T03:51:45;12.45;;;9.02;;
22160;SDS011;49035;48.812;11.762;2022-10-19T03:54:13;27.17;;;9.23;;
22160;SDS011;49035;48.812;11.762;2022-10-19T03:56:40;15.70;;;9.23;;
22160;SDS011;49035;48.812;11.762;2022-10-19T03:59:06;33.92;;;10.43;;
22160;SDS011;49035;48.812;11.762;2022-10-19T04:01:36;10.90;;;9.07;;
22160;SDS011;49035;48.812;11.762;2022-10-19T04:04:05;10.80;;;8.20;;
22160;SDS011;49035;48.812;11.762;2022-10-19T04:06:34;9.38;;;7.65;;
22160;SDS011;49035;48.812;11.762;2022-10-19T04:09:02;27.52;;;8.23;;
22160;SDS011;49035;48.812;11.762;2022-10-19T04:11:29;8.63;;;7.35;;
22160;SDS011;49035;48.812;11.762;2022-10-19T04:13:57;9.30;;;7.78;;
22160;SDS011;49035;48.812;11.762;2022-10-19T04:16:23;9.30;;;7.70;;
22160;SDS011;49035;48.812;11.762;2022-10-19T04:18:49;10.88;;;7.68;;
22160;SDS011;49035;48.812;11.762;2022-10-19T04:21:20;10.98;;;7.80;;
22160;SDS011;49035;48.812;11.762;2022-10-19T04:23:47;11.35;;;7.97;;
22160;SDS011;49035;48.812;11.762;2022-10-19T04:26:13;10.25;;;7.82;;
22160;SDS011;49035;48.812;11.762;2022-10-19T04:28:39;9.13;;;7.85;;
22160;SDS011;49035;48.812;11.762;2022-10-19T04:31:05;10.02;;;8.43;;
22160;SDS011;49035;48.812;11.762;2022-10-19T04:33:31;11.30;;;7.90;;
22160;SDS011;49035;48.812;11.762;2022-10-19T04:35:58;9.43;;;7.63;;
22160;SDS011;49035;48.812;11.762;2022-10-19T04:38:28;11.13;;;7.68;;
22160;SDS011;49035;48.812;11.762;2022-10-19T04:40:54;10.25;;;7.05;;
22160;SDS011;49035;48.812;11.762;2022-10-19T04:43:20;10.25;;;7.57;;
22160;SDS011;49035;48.812;11.762;2022-10-19T04:45:46;8.77;;;6.95;;
22160;SDS011;49035;48.812;11.762;2022-10-19T04:48:12;6.70;;;6.00;;
22160;SDS011;49035;48.812;11.762;2022-10-19T04:50:37;9.10;;;6.97;;
22160;SDS011;49035;48.812;11.762;2022-10-19T04:53:03;7.72;;;6.00;;
22160;SDS011;49035;48.812;11.762;2022-10-19T04:55:28;11.00;;;6.57;;
22160;SDS011;49035;48.812;11.762;2022-10-19T04:57:54;27.15;;;6.95;;
22160;SDS011;49035;48.812;11.762;2022-10-19T05:00:20;6.55;;;5.90;;
22160;SDS011;49035;48.812;11.762;2022-10-19T05:02:45;8.30;;;6.43;;
22160;SDS011;49035;48.812;11.762;2022-10-19T05:05:12;7.65;;;6.20;;
22160;SDS011;49035;48.812;11.762;2022-10-19T05:07:38;7.63;;;6.32;;
22160;SDS011;49035;48.812;11.762;2022-10-19T05:10:04;6.82;;;6.13;;
22160;SDS011;49035;48.812;11.762;2022-10-19T05:12:30;7.78;;;6.43;;
22160;SDS011;49035;48.812;11.762;2022-10-19T05:14:56;7.88;;;7.05;;
22160;SDS011;49035;48.812;11.762;2022-10-19T05:17:21;13.40;;;7.53;;
22160;SDS011;49035;48.812;11.762;2022-10-19T05:19:47;7.10;;;6.38;;
22160;SDS011;49035;48.812;11.762;2022-10-19T05:22:13;44.63;;;7.45;;
22160;SDS011;49035;48.812;11.762;2022-10-19T05:24:38;109.50;;;10.20;;
22160;SDS011;49035;48.812;11.762;2022-10-19T05:27:04;68.35;;;8.98;;
22160;SDS011;49035;48.812;11.762;2022-10-19T05:29:29;62.60;;;9.13;;
22160;SDS011;49035;48.812;11.762;2022-10-19T05:31:57;11.73;;;6.78;;
22160;SDS011;49035;48.812;11.762;2022-10-19T05:34:23;126.43;;;11.80;;
22160;SDS011;49035;48.812;11.762;2022-10-19T05:36:49;20.75;;;9.55;;
22160;SDS011;49035;48.812;11.762;2022-10-19T05:39:15;23.33;;;7.70;;
22160;SDS011;49035;48.812;11.762;2022-10-19T05:41:42;26.10;;;8.30;;
22160;SDS011;49035;48.812;11.762;2022-10-19T05:44:12;25.88;;;9.10;;
22160;SDS011;49035;48.812;11.762;2022-10-19T05:46:45;10.57;;;8.13;;
22160;SDS011;49035;48.812;11.762;2022-10-19T05:49:12;55.13;;;9.23;;
22160;SDS011;49035;48.812;11.762;2022-10-19T05:51:39;12.52;;;7.85;;
22160;SDS011;49035;48.812;11.762;2022-10-19T05:54:04;24.23;;;7.57;;
22160;SDS011;49035;48.812;11.762;2022-10-19T05:56:32;54.75;;;9.68;;
22160;SDS011;49035;48.812;11.762;2022-10-19T05:58:58;11.40;;;7.43;;
22160;SDS011;49035;48.812;11.762;2022-10-19T06:01:26;11.48;;;8.38;;
22160;SDS011;49035;48.812;11.762;2022-10-19T06:03:53;23.15;;;9.23;;
22160;SDS011;49035;48.812;11.762;2022-10-19T06:06:21;35.90;;;8.85;;
22160;SDS011;49035;48.812;11.762;2022-10-19T06:08:47;73.05;;;9.70;;
22160;SDS011;49035;48.812;11.762;2022-10-19T06:11:14;14.63;;;8.85;;
22160;SDS011;49035;48.812;11.762;2022-10-19T06:13:45;48.33;;;9.68;;
22160;SDS011;49035;48.812;11.762;2022-10-19T06:16:12;61.83;;;10.38;;
22160;SDS011;49035;48.812;11.762;2022-10-19T06:18:39;17.95;;;8.18;;
22160;SDS011;49035;48.812;11.762;2022-10-19T06:21:06;13.48;;;8.05;;
22160;SDS011;49035;48.812;11.762;2022-10-19T06:23:35;15.00;;;8.25;;
22160;SDS011;49035;48.812;11.762;2022-10-19T06:26:02;109.20;;;10.77;;
22160;SDS011;49035;48.812;11.762;2022-10-19T06:28:29;41.75;;;8.80;;
22160;SDS011;49035;48.812;11.762;2022-10-19T06:30:56;50.70;;;8.60;;
22160;SDS011;49035;48.812;11.762;2022-10-19T06:33:22;50.10;;;9.02;;
22160;SDS011;49035;48.812;11.762;2022-10-19T06:35:48;59.35;;;10.10;;
22160;SDS011;49035;48.812;11.762;2022-10-19T06:38:13;69.38;;;10.20;;
22160;SDS011;49035;48.812;11.762;2022-10-19T06:40:39;18.88;;;8.40;;
22160;SDS011;49035;48.812;11.762;2022-10-19T06:43:04;23.50;;;9.05;;
22160;SDS011;49035;48.812;11.762;2022-10-19T06:45:30;22.05;;;8.95;;
22160;SDS011;49035;48.812;11.762;2022-10-19T06:47:56;46.03;;;9.98;;
22160;SDS011;49035;48.812;11.762;2022-10-19T06:50:23;21.10;;;9.93;;
22160;SDS011;49035;48.812;11.762;2022-10-19T06:52:49;15.45;;;9.95;;
22160;SDS011;49035;48.812;11.762;2022-10-19T06:55:14;22.23;;;10.70;;
22160;SDS011;49035;48.812;11.762;2022-10-19T06:57:41;17.30;;;9.65;;
22160;SDS011;49035;48.812;11.762;2022-10-19T07:00:08;52.58;;;10.98;;
22160;SDS011;49035;48.812;11.762;2022-10-19T07:02:34;17.95;;;9.98;;
22160;SDS011;49035;48.812;11.762;2022-10-19T07:04:59;18.60;;;9.18;;
22160;SDS011;49035;48.812;11.762;2022-10-19T07:07:25;16.95;;;9.57;;
22160;SDS011;49035;48.812;11.762;2022-10-19T07:09:51;13.15;;;9.20;;
22160;SDS011;49035;48.812;11.762;2022-10-19T07:12:17;52.78;;;9.60;;
22160;SDS011;49035;48.812;11.762;2022-10-19T07:14:43;23.75;;;9.65;;
22160;SDS011;49035;48.812;11.762;2022-10-19T07:17:09;15.63;;;8.27;;
22160;SDS011;49035;48.812;11.762;2022-10-19T07:19:35;26.00;;;9.02;;
22160;SDS011;49035;48.812;11.762;2022-10-19T07:22:01;12.15;;;7.72;;
22160;SDS011;49035;48.812;11.762;2022-10-19T07:24:27;33.97;;;7.78;;
22160;SDS011;49035;48.812;11.762;2022-10-19T07:26:53;13.30;;;8.50;;
22160;SDS011;49035;48.812;11.762;2022-10-19T07:29:19;13.20;;;9.07;;
22160;SDS011;49035;48.812;11.762;2022-10-19T07:31:45;11.98;;;8.43;;
22160;SDS011;49035;48.812;11.762;2022-10-19T07:34:11;12.63;;;7.65;;
22160;SDS011;49035;48.812;11.762;2022-10-19T07:36:38;14.65;;;7.45;;
22160;SDS011;49035;48.812;11.762;2022-10-19T07:39:08;8.40;;;5.72;;
22160;SDS011;49035;48.812;11.762;2022-10-19T07:41:35;7.40;;;5.35;;
22160;SDS011;49035;48.812;11.762;2022-10-19T07:44:01;10.93;;;6.57;;
22160;SDS011;49035;48.812;11.762;2022-10-19T07:46:28;15.55;;;7.18;;
22160;SDS011;49035;48.812;11.762;2022-10-19T07:48:57;9.13;;;7.07;;
22160;SDS011;49035;48.812;11.762;2022-10-19T07:51:23;9.35;;;6.10;;
22160;SDS011;49035;48.812;11.762;2022-10-19T07:53:50;9.95;;;6.65;;
22160;SDS011;49035;48.812;11.762;2022-10-19T07:56:20;7.72;;;5.93;;
22160;SDS011;49035;48.812;11.762;2022-10-19T07:58:48;9.70;;;6.93;;
22160;SDS011;49035;48.812;11.762;2022-10-19T08:01:15;10.48;;;6.35;;
22160;SDS011;49035;48.812;11.762;2022-10-19T08:03:43;11.55;;;6.63;;
22160;SDS011;49035;48.812;11.762;2022-10-19T08:06:13;13.85;;;7.25;;
22160;SDS011;49035;48.812;11.762;2022-10-19T08:08:40;9.73;;;7.78;;
22160;SDS011;49035;48.812;11.762;2022-10-19T08:11:07;9.50;;;7.43;;
22160;SDS011;49035;48.812;11.762;2022-10-19T08:13:34;12.00;;;8.18;;
22160;SDS011;49035;48.812;11.762;2022-10-19T08:16:00;14.55;;;8.52;;
22160;SDS011;49035;48.812;11.762;2022-10-19T08:18:26;10.73;;;8.23;;
22160;SDS011;49035;48.812;11.762;2022-10-19T08:20:51;16.65;;;9.82;;
22160;SDS011;49035;48.812;11.762;2022-10-19T08:23:17;18.77;;;10.18;;
22160;SDS011;49035;48.812;11.762;2022-10-19T08:25:42;18.85;;;11.20;;
22160;SDS011;49035;48.812;11.762;2022-10-19T08:28:08;20.83;;;12.23;;
22160;SDS011;49035;48.812;11.762;2022-10-19T08:30:34;18.38;;;11.13;;
22160;SDS011;49035;48.812;11.762;2022-10-19T08:33:00;19.38;;;10.70;;
22160;SDS011;49035;48.812;11.762;2022-10-19T08:35:28;18.73;;;11.68;;
22160;SDS011;49035;48.812;11.762;2022-10-19T08:37:55;16.80;;;11.35;;
22160;SDS011;49035;48.812;11.762;2022-10-19T08:40:22;17.38;;;10.48;;
22160;SDS011;49035;48.812;11.762;2022-10-19T08:42:57;15.38;;;10.30;;
22160;SDS011;49035;48.812;11.762;2022-10-19T08:50:37;19.63;;;12.57;;
22160;SDS011;49035;48.812;11.762;2022-10-19T08:53:09;22.50;;;13.70;;
22160;SDS011;49035;48.812;11.762;2022-10-19T09:03:41;23.33;;;13.35;;
22160;SDS011;49035;48.812;11.762;2022-10-19T09:06:25;22.35;;;12.98;;
22160;SDS011;49035;48.812;11.762;2022-10-19T09:09:04;15.45;;;11.00;;
22160;SDS011;49035;48.812;11.762;2022-10-19T09:11:35;14.73;;;10.40;;
22160;SDS011;49035;48.812;11.762;2022-10-19T09:16:32;19.45;;;12.38;;
22160;SDS011;49035;48.812;11.762;2022-10-19T09:18:59;18.30;;;12.45;;
22160;SDS011;49035;48.812;11.762;2022-10-19T09:21:42;21.30;;;12.45;;
22160;SDS011;49035;48.812;11.762;2022-10-19T09:24:19;20.05;;;12.43;;
22160;SDS011;49035;48.812;11.762;2022-10-19T09:27:20;21.10;;;12.75;;
22160;SDS011;49035;48.812;11.762;2022-10-19T09:29:56;16.73;;;12.63;;
22160;SDS011;49035;48.812;11.762;2022-10-19T09:32:34;18.85;;;13.10;;
22160;SDS011;49035;48.812;11.762;2022-10-19T09:35:05;18.52;;;12.70;;
22160;SDS011;49035;48.812;11.762;2022-10-19T09:37:39;17.88;;;13.38;;
22160;SDS011;49035;48.812;11.762;2022-10-19T09:40:12;16.35;;;12.07;;
22160;SDS011;49035;48.812;11.762;2022-10-19T09:42:42;18.92;;;12.23;;
22160;SDS011;49035;48.812;11.762;2022-10-19T09:45:13;17.42;;;13.23;;
22160;SDS011;49035;48.812;11.762;2022-10-19T09:47:47;15.82;;;12.48;;
22160;SDS011;49035;48.812;11.762;2022-10-19T09:50:15;18.05;;;13.40;;
22160;SDS011;49035;48.812;11.762;2022-10-19T09:52:44;18.25;;;13.23;;
22160;SDS011;49035;48.812;11.762;2022-10-19T09:57:47;19.02;;;14.52;;
22160;SDS011;49035;48.812;11.762;2022-10-19T10:00:19;17.45;;;13.10;;
22160;SDS011;49035;48.812;11.762;2022-10-19T10:02:50;18.08;;;12.68;;
22160;SDS011;49035;48.812;11.762;2022-10-19T10:05:17;17.27;;;12.77;;
22160;SDS011;49035;48.812;11.762;2022-10-19T10:07:43;19.98;;;14.07;;
22160;SDS011;49035;48.812;11.762;2022-10-19T10:10:10;18.23;;;12.95;;
22160;SDS011;49035;48.812;11.762;2022-10-19T10:12:45;16.45;;;12.52;;
22160;SDS011;49035;48.812;11.762;2022-10-19T10:15:16;16.33;;;12.65;;
22160;SDS011;49035;48.812;11.762;2022-10-19T10:17:47;15.82;;;12.82;;
22160;SDS011;49035;48.812;11.762;2022-10-19T10:20:19;17.42;;;13.05;;
22160;SDS011;49035;48.812;11.762;2022-10-19T10:22:59;14.60;;;11.93;;
22160;SDS011;49035;48.812;11.762;2022-10-19T10:25:36;16.80;;;12.85;;
22160;SDS011;49035;48.812;11.762;2022-10-19T10:28:04;15.45;;;12.13;;
22160;SDS011;49035;48.812;11.762;2022-10-19T10:30:43;18.05;;;13.13;;
22160;SDS011;49035;48.812;11.762;2022-10-19T10:33:14;16.35;;;11.90;;
22160;SDS011;49035;48.812;11.762;2022-10-19T10:35:47;12.68;;;10.60;;
22160;SDS011;49035;48.812;11.762;2022-10-19T10:38:18;11.20;;;9.00;;
22160;SDS011;49035;48.812;11.762;2022-10-19T10:40:55;9.70;;;8.68;;
22160;SDS011;49035;48.812;11.762;2022-10-19T10:43:32;12.35;;;8.02;;
22160;SDS011;49035;48.812;11.762;2022-10-19T10:46:21;9.70;;;8.27;;
22160;SDS011;49035;48.812;11.762;2022-10-19T10:48:55;10.13;;;7.57;;
22160;SDS011;49035;48.812;11.762;2022-10-19T10:54:34;8.55;;;6.60;;
22160;SDS011;49035;48.812;11.762;2022-10-19T11:00:19;7.15;;;5.50;;
22160;SDS011;49035;48.812;11.762;2022-10-19T11:03:00;11.68;;;5.38;;
22160;SDS011;49035;48.812;11.762;2022-10-19T11:05:25;10.05;;;5.97;;
22160;SDS011;49035;48.812;11.762;2022-10-19T11:07:57;7.20;;;5.90;;
22160;SDS011;49035;48.812;11.762;2022-10-19T11:10:36;7.05;;;6.07;;
22160;SDS011;49035;48.812;11.762;2022-10-19T11:13:09;5.75;;;5.15;;
22160;SDS011;49035;48.812;11.762;2022-10-19T11:15:50;6.38;;;5.50;;
22160;SDS011;49035;48.812;11.762;2022-10-19T11:18:19;5.78;;;5.18;;
22160;SDS011;49035;48.812;11.762;2022-10-19T11:21:07;5.63;;;4.65;;
22160;SDS011;49035;48.812;11.762;2022-10-19T11:31:53;5.10;;;4.25;;
22160;SDS011;49035;48.812;11.762;2022-10-19T11:37:04;8.18;;;4.25;;
22160;SDS011;49035;48.812;11.762;2022-10-19T11:40:02;5.07;;;4.50;;
22160;SDS011;49035;48.812;11.762;2022-10-19T11:42:51;6.20;;;4.00;;
22160;SDS011;49035;48.812;11.762;2022-10-19T11:45:36;7.10;;;4.35;;
22160;SDS011;49035;48.812;11.762;2022-10-19T12:01:38;8.68;;;4.03;;
22160;SDS011;49035;48.812;11.762;2022-10-19T12:07:18;3.95;;;3.05;;
22160;SDS011;49035;48.812;11.762;2022-10-19T12:09:57;4.65;;;3.55;;
22160;SDS011;49035;48.812;11.762;2022-10-19T12:12:45;4.32;;;3.75;;
22160;SDS011;49035;48.812;11.762;2022-10-19T12:18:03;5.82;;;4.75;;
22160;SDS011;49035;48.812;11.762;2022-10-19T12:20:40;6.57;;;4.53;;
22160;SDS011;49035;48.812;11.762;2022-10-19T12:23:31;8.50;;;4.43;;
22160;SDS011;49035;48.812;11.762;2022-10-19T12:26:09;9.32;;;4.70;;
22160;SDS011;49035;48.812;11.762;2022-10-19T12:28:49;5.80;;;4.80;;
22160;SDS011;49035;48.812;11.762;2022-10-19T12:31:21;7.55;;;5.00;;
22160;SDS011;49035;48.812;11.762;2022-10-19T12:34:03;7.65;;;5.57;;
22160;SDS011;49035;48.812;11.762;2022-10-19T12:36:56;8.10;;;5.28;;
22160;SDS011;49035;48.812;11.762;2022-10-19T12:47:37;7.75;;;5.38;;
22160;SDS011;49035;48.812;11.762;2022-10-19T12:50:02;5.90;;;4.50;;
22160;SDS011;49035;48.812;11.762;2022-10-19T12:57:39;10.23;;;5.53;;
22160;SDS011;49035;48.812;11.762;2022-10-19T13:00:19;6.35;;;4.82;;
22160;SDS011;49035;48.812;11.762;2022-10-19T13:03:00;6.05;;;4.47;;
22160;SDS011;49035;48.812;11.762;2022-10-19T13:05:30;6.15;;;3.92;;
22160;SDS011;49035;48.812;11.762;2022-10-19T13:07:56;5.20;;;3.85;;
22160;SDS011;49035;48.812;11.762;2022-10-19T13:10:29;7.15;;;3.40;;
22160;SDS011;49035;48.812;11.762;2022-10-19T13:12:56;5.05;;;3.63;;
22160;SDS011;49035;48.812;11.762;2022-10-19T13:16:05;5.18;;;3.88;;
22160;SDS011;49035;48.812;11.762;2022-10-19T13:21:41;6.28;;;4.07;;
22160;SDS011;49035;48.812;11.762;2022-10-19T13:34:55;5.65;;;4.15;;
22160;SDS011;49035;48.812;11.762;2022-10-19T13:43:25;5.30;;;3.80;;
22160;SDS011;49035;48.812;11.762;2022-10-19T13:46:06;5.82;;;3.45;;
22160;SDS011;49035;48.812;11.762;2022-10-19T14:11:01;4.72;;;3.17;;
22160;SDS011;49035;48.812;11.762;2022-10-19T14:13:41;4.07;;;3.20;;
22160;SDS011;49035;48.812;11.762;2022-10-19T14:16:15;3.63;;;2.72;;
22160;SDS011;49035;48.812;11.762;2022-10-19T14:18:43;4.90;;;3.00;;
22160;SDS011;49035;48.812;11.762;2022-10-19T14:21:17;5.80;;;3.00;;
22160;SDS011;49035;48.812;11.762;2022-10-19T14:23:53;3.30;;;2.92;;
22160;SDS011;49035;48.812;11.762;2022-10-19T14:26:20;2.97;;;2.67;;
22160;SDS011;49035;48.812;11.762;2022-10-19T14:28:52;5.57;;;3.17;;
22160;SDS011;49035;48.812;11.762;2022-10-19T14:31:22;4.85;;;3.70;;
22160;SDS011;49035;48.812;11.762;2022-10-19T14:33:50;3.85;;;2.95;;
22160;SDS011;49035;48.812;11.762;2022-10-19T14:36:18;6.63;;;3.03;;
22160;SDS011;49035;48.812;11.762;2022-10-19T14:38:47;4.45;;;3.03;;
22160;SDS011;49035;48.812;11.762;2022-10-19T14:41:28;3.75;;;3.08;;
22160;SDS011;49035;48.812;11.762;2022-10-19T14:44:00;4.18;;;3.35;;
22160;SDS011;49035;48.812;11.762;2022-10-19T14:46:30;4.85;;;3.60;;
22160;SDS011;49035;48.812;11.762;2022-10-19T14:49:01;3.42;;;2.75;;
22160;SDS011;49035;48.812;11.762;2022-10-19T14:51:41;4.25;;;3.13;;
22160;SDS011;49035;48.812;11.762;2022-10-19T14:54:23;6.78;;;3.63;;
22160;SDS011;49035;48.812;11.762;2022-10-19T14:56:57;4.28;;;2.88;;
22160;SDS011;49035;48.812;11.762;2022-10-19T14:59:32;7.03;;;3.20;;
22160;SDS011;49035;48.812;11.762;2022-10-19T15:04:49;5.93;;;3.15;;
22160;SDS011;49035;48.812;11.762;2022-10-19T15:07:20;6.00;;;3.65;;
22160;SDS011;49035;48.812;11.762;2022-10-19T15:09:55;5.18;;;3.47;;
22160;SDS011;49035;48.812;11.762;2022-10-19T15:12:33;8.60;;;3.80;;
22160;SDS011;49035;48.812;11.762;2022-10-19T15:15:15;6.20;;;4.35;;
22160;SDS011;49035;48.812;11.762;2022-10-19T15:23:01;5.28;;;3.63;;
22160;SDS011;49035;48.812;11.762;2022-10-19T15:25:57;4.95;;;4.18;;
22160;SDS011;49035;48.812;11.762;2022-10-19T15:28:42;6.72;;;4.05;;
22160;SDS011;49035;48.812;11.762;2022-10-19T15:31:14;8.45;;;3.70;;
22160;SDS011;49035;48.812;11.762;2022-10-19T15:33:49;8.43;;;4.45;;
22160;SDS011;49035;48.812;11.762;2022-10-19T15:36:17;5.93;;;3.65;;
22160;SDS011;49035;48.812;11.762;2022-10-19T15:38:48;4.85;;;3.75;;
22160;SDS011;49035;48.812;11.762;2022-10-19T15:41:31;5.90;;;3.70;;
22160;SDS011;49035;48.812;11.762;2022-10-19T15:43:59;5.65;;;4.15;;
22160;SDS011;49035;48.812;11.762;2022-10-19T15:46:32;6.47;;;4.57;;
22160;SDS011;49035;48.812;11.762;2022-10-19T15:49:00;7.00;;;3.92;;
22160;SDS011;49035;48.812;11.762;2022-10-19T15:53:58;6.95;;;4.68;;
22160;SDS011;49035;48.812;11.762;2022-10-19T15:56:26;7.72;;;4.65;;
22160;SDS011;49035;48.812;11.762;2022-10-19T15:58:55;8.57;;;4.93;;
22160;SDS011;49035;48.812;11.762;2022-10-19T16:01:26;6.93;;;4.40;;
22160;SDS011;49035;48.812;11.762;2022-10-19T16:03:52;13.50;;;4.70;;
22160;SDS011;49035;48.812;11.762;2022-10-19T16:06:20;6.15;;;4.45;;
22160;SDS011;49035;48.812;11.762;2022-10-19T16:08:47;10.23;;;5.35;;
22160;SDS011;49035;48.812;11.762;2022-10-19T16:11:15;6.57;;;5.28;;
22160;SDS011;49035;48.812;11.762;2022-10-19T16:13:42;9.10;;;5.60;;
22160;SDS011;49035;48.812;11.762;2022-10-19T16:16:09;9.50;;;5.82;;
22160;SDS011;49035;48.812;11.762;2022-10-19T16:18:38;8.15;;;5.43;;
22160;SDS011;49035;48.812;11.762;2022-10-19T16:21:04;11.13;;;5.53;;
22160;SDS011;49035;48.812;11.762;2022-10-19T16:23:30;8.48;;;5.63;;
22160;SDS011;49035;48.812;11.762;2022-10-19T16:25:58;9.00;;;5.38;;
22160;SDS011;49035;48.812;11.762;2022-10-19T16:28:24;7.32;;;5.63;;
22160;SDS011;49035;48.812;11.762;2022-10-19T16:30:50;7.05;;;5.20;;
22160;SDS011;49035;48.812;11.762;2022-10-19T16:33:17;7.50;;;5.50;;
22160;SDS011;49035;48.812;11.762;2022-10-19T16:35:42;7.45;;;5.30;;
22160;SDS011;49035;48.812;11.762;2022-10-19T16:38:08;8.63;;;5.32;;
22160;SDS011;49035;48.812;11.762;2022-10-19T16:40:33;9.32;;;5.80;;
22160;SDS011;49035;48.812;11.762;2022-10-19T16:42:59;8.32;;;5.82;;
22160;SDS011;49035;48.812;11.762;2022-10-19T16:45:28;12.20;;;5.70;;
22160;SDS011;49035;48.812;11.762;2022-10-19T16:47:54;11.23;;;6.65;;
22160;SDS011;49035;48.812;11.762;2022-10-19T16:50:20;9.82;;;6.55;;
22160;SDS011;49035;48.812;11.762;2022-10-19T16:52:45;8.80;;;6.22;;
22160;SDS011;49035;48.812;11.762;2022-10-19T16:55:11;10.63;;;6.88;;
22160;SDS011;49035;48.812;11.762;2022-10-19T16:57:37;9.90;;;6.20;;
22160;SDS011;49035;48.812;11.762;2022-10-19T17:00:03;7.95;;;5.97;;
22160;SDS011;49035;48.812;11.762;2022-10-19T17:02:30;11.00;;;6.22;;